West Lebanon, Indiana
Current Conditions -  °F | °C
As of 10:55 PM on Wednesday 28 Jan 2015 (Local Time) from KDNV Reporting Station
Clear Clear  
Wind Chill: -4°   Ceiling: Unl
Heat Index:   Visibility: 10mi
Dew Point: -6°   Wind: 18mph
Humidity: 60%   Direction: 160°SSE
Pressure: 29.9"   Gusts: 23mph
Location:  40.27°N, 87.39°W
Report Text: KDNV 290355Z AUTO 16016G20KT 10SM CLR 02/M06 A2990 RMK AO2 T00151056
Loading
Personal Weather Stations






























Interactive Weather Map New forecast layout! Learn more

10-Day Weather Forecast

Advertisements
Track Severe Weather on mobile